Ossett, United Kingdom
Current Conditions -  °F | °C
As of 10:20 AM on Saturday 20 Dec 2014 (Local Time) from EGNM Reporting Station
Rain Showers Rain Showers  
Wind Chill:   Ceiling: 2300
Heat Index:   Visibility: 6mi
Dew Point:   Wind: 18mph
Humidity: 81%   Direction: 280°W
Pressure: 30.12"   Gusts: NA
Location:  53.68°N, 1.58°W
Report Text: EGNM 201020Z 28016KT 9999 -SHRA FEW012 BKN023 06/03 Q1020
Loading
Personal Weather Stations






























Interactive Weather Map New forecast layout! Learn more

10-Day Weather Forecast

Advertisements
Track Severe Weather on mobile